createdAt,value
2023-03-21T00:02:10.509Z,13.20
2023-03-21T00:04:50.826Z,13.20
2023-03-21T00:07:21.984Z,13.20
2023-03-21T00:09:50.654Z,13.20
2023-03-21T00:12:21.149Z,13.20
2023-03-21T00:14:49.481Z,13.20
2023-03-21T00:17:18.148Z,13.20
2023-03-21T00:19:51.654Z,13.20
2023-03-21T00:22:21.389Z,13.20
2023-03-21T00:24:49.791Z,13.20
2023-03-21T00:27:43.072Z,13.20
2023-03-21T00:30:08.815Z,13.20
2023-03-21T00:32:42.818Z,13.20
2023-03-21T00:36:06.182Z,13.20
2023-03-21T00:38:09.798Z,13.20
2023-03-21T00:40:43.722Z,13.20
2023-03-21T00:43:17.710Z,13.20
2023-03-21T00:45:46.306Z,13.20
2023-03-21T00:48:15.184Z,13.10
2023-03-21T00:50:46.804Z,13.20
2023-03-21T00:53:17.533Z,13.20
2023-03-21T00:55:47.974Z,13.20
2023-03-21T00:58:16.748Z,13.20
2023-03-21T01:00:47.065Z,13.20
2023-03-21T01:03:25.031Z,13.20
2023-03-21T01:06:05.646Z,13.20
2023-03-21T01:08:53.506Z,13.10
2023-03-21T01:11:24.111Z,13.20
2023-03-21T01:14:07.148Z,13.20
2023-03-21T01:16:40.140Z,13.20
2023-03-21T01:19:22.149Z,13.20
2023-03-21T01:21:53.167Z,13.20
2023-03-21T01:24:23.132Z,13.20
2023-03-21T01:26:51.486Z,13.20
2023-03-21T01:29:19.866Z,13.10
2023-03-21T01:31:48.492Z,13.10
2023-03-21T01:34:16.847Z,13.10
2023-03-21T01:36:45.465Z,13.10
2023-03-21T01:39:18.655Z,13.10
2023-03-21T01:41:51.078Z,13.10
2023-03-21T01:44:22.570Z,13.10
2023-03-21T01:47:07.730Z,13.10
2023-03-21T01:49:50.944Z,13.10
2023-03-21T01:52:37.669Z,13.10
2023-03-21T01:55:13.577Z,13.10
2023-03-21T01:58:18.202Z,13.10
2023-03-21T02:01:03.138Z,13.10
2023-03-21T02:03:53.282Z,13.10
2023-03-21T02:06:47.496Z,13.10
2023-03-21T02:09:29.922Z,13.10
2023-03-21T02:11:58.350Z,13.10
2023-03-21T02:14:34.769Z,13.10
2023-03-21T02:17:16.326Z,13.10
2023-03-21T02:20:22.116Z,13.20
2023-03-21T02:23:19.002Z,13.10
2023-03-21T02:26:42.126Z,13.10
2023-03-21T02:29:37.768Z,13.10
2023-03-21T02:32:22.723Z,13.10
2023-03-21T02:35:26.268Z,13.20
2023-03-21T02:38:01.408Z,13.20
2023-03-21T02:40:36.688Z,13.20
2023-03-21T02:43:22.104Z,13.20
2023-03-21T02:45:54.848Z,13.20
2023-03-21T02:48:38.092Z,13.20
2023-03-21T02:51:17.116Z,13.20
2023-03-21T02:54:04.592Z,13.20
2023-03-21T02:56:41.492Z,13.20
2023-03-21T02:59:10.975Z,13.10
2023-03-21T03:01:39.341Z,13.10
2023-03-21T03:04:20.304Z,13.10
2023-03-21T03:07:06.896Z,13.20
2023-03-21T03:09:49.564Z,13.20
2023-03-21T03:12:24.971Z,13.10
2023-03-21T03:15:04.818Z,13.10
2023-03-21T03:17:50.970Z,13.10
2023-03-21T03:20:25.894Z,13.20
2023-03-21T03:23:00.225Z,13.20
2023-03-21T03:25:42.945Z,13.10
2023-03-21T03:28:17.546Z,13.10
2023-03-21T03:31:01.123Z,13.10
2023-03-21T03:33:41.960Z,13.10
2023-03-21T03:36:28.367Z,13.10
2023-03-21T03:39:04.462Z,13.10
2023-03-21T03:42:04.345Z,13.10
2023-03-21T03:44:33.870Z,13.10
2023-03-21T03:47:11.826Z,13.10
2023-03-21T03:49:47.644Z,13.10
2023-03-21T03:52:21.229Z,13.10
2023-03-21T03:54:59.577Z,13.10
2023-03-21T03:57:33.060Z,13.10
2023-03-21T04:00:01.520Z,13.10
2023-03-21T04:02:51.227Z,13.10
2023-03-21T04:05:24.460Z,13.10
2023-03-21T04:07:52.911Z,13.10
2023-03-21T04:10:28.966Z,13.10
2023-03-21T04:12:58.706Z,13.10
2023-03-21T04:15:50.000Z,13.10
2023-03-21T04:18:18.727Z,13.40
2023-03-21T04:20:48.689Z,13.10
2023-03-21T04:23:18.979Z,13.10
2023-03-21T04:25:56.322Z,13.10
2023-03-21T04:28:29.940Z,13.10
2023-03-21T04:31:24.383Z,13.10
2023-03-21T04:34:01.667Z,13.10
2023-03-21T04:36:38.863Z,13.10
2023-03-21T04:39:12.438Z,13.10
2023-03-21T04:41:42.245Z,13.10
2023-03-21T04:44:13.735Z,13.10
2023-03-21T04:46:42.662Z,13.10
2023-03-21T04:49:12.461Z,13.10
2023-03-21T04:51:41.121Z,13.10
2023-03-21T04:56:43.110Z,13.10
2023-03-21T04:59:15.928Z,13.10
2023-03-21T05:01:45.061Z,13.10
2023-03-21T05:04:15.834Z,13.10
2023-03-21T05:06:45.211Z,13.10
2023-03-21T05:09:14.803Z,13.10
2023-03-21T05:11:44.141Z,13.10
2023-03-21T05:14:19.240Z,13.10
2023-03-21T05:16:53.765Z,13.10
2023-03-21T05:19:25.953Z,13.10
2023-03-21T05:21:56.773Z,13.10
2023-03-21T05:24:28.248Z,13.00
2023-03-21T05:27:02.735Z,13.00
2023-03-21T05:29:39.164Z,13.00
2023-03-21T05:32:09.171Z,13.00
2023-03-21T05:34:37.634Z,13.00
2023-03-21T05:37:06.175Z,13.10
2023-03-21T05:39:48.451Z,13.10
2023-03-21T05:42:26.972Z,13.00
2023-03-21T05:44:57.368Z,13.00
2023-03-21T05:47:32.083Z,13.00
2023-03-21T05:50:02.040Z,13.00
2023-03-21T05:52:32.404Z,13.00
2023-03-21T05:55:03.205Z,13.00
2023-03-21T05:57:35.197Z,13.00
2023-03-21T06:00:12.820Z,13.00
2023-03-21T06:02:44.476Z,13.00
2023-03-21T06:05:48.627Z,13.00
2023-03-21T06:08:23.293Z,13.00
2023-03-21T06:10:52.516Z,13.00
2023-03-21T06:13:21.704Z,12.70
2023-03-21T06:15:51.642Z,13.00
2023-03-21T06:18:23.961Z,13.00
2023-03-21T06:21:00.833Z,13.00
2023-03-21T06:23:29.183Z,13.00
2023-03-21T06:25:57.672Z,13.00
2023-03-21T06:28:28.172Z,13.00
2023-03-21T06:30:58.108Z,13.00
2023-03-21T06:33:28.425Z,13.00
2023-03-21T06:35:59.046Z,13.00
2023-03-21T06:38:30.315Z,13.10
2023-03-21T06:40:59.274Z,13.00
2023-03-21T06:43:33.285Z,12.90
2023-03-21T06:46:06.302Z,13.00
2023-03-21T06:48:35.608Z,13.00
2023-03-21T06:51:05.070Z,13.00
2023-03-21T06:53:36.205Z,13.30
2023-03-21T06:56:21.219Z,13.00
2023-03-21T06:58:50.538Z,13.00
2023-03-21T07:01:40.421Z,13.00
2023-03-21T07:04:09.472Z,13.00
2023-03-21T07:06:38.584Z,13.00
2023-03-21T07:09:07.686Z,13.20
2023-03-21T07:11:37.920Z,13.00
2023-03-21T07:14:07.735Z,13.00
2023-03-21T07:16:36.330Z,13.00
2023-03-21T07:19:06.230Z,13.00
2023-03-21T07:21:34.646Z,13.00
2023-03-21T07:24:03.053Z,13.10
2023-03-21T07:26:31.424Z,13.10
2023-03-21T07:29:00.771Z,13.10
2023-03-21T07:31:29.691Z,13.10
2023-03-21T07:33:58.159Z,13.10
2023-03-21T07:36:28.218Z,13.10
2023-03-21T07:38:56.577Z,13.10
2023-03-21T07:41:26.241Z,13.10
2023-03-21T07:43:54.699Z,13.10
2023-03-21T07:46:23.170Z,13.10
2023-03-21T07:48:51.638Z,13.10
2023-03-21T07:51:19.933Z,13.20
2023-03-21T07:53:49.731Z,13.10
2023-03-21T07:56:18.112Z,13.10
2023-03-21T07:58:46.867Z,13.10
2023-03-21T08:01:15.435Z,13.10
2023-03-21T08:03:44.360Z,13.10
2023-03-21T08:06:13.091Z,13.10
2023-03-21T08:08:41.989Z,13.10
2023-03-21T08:11:13.129Z,13.10
2023-03-21T08:13:41.948Z,13.10
2023-03-21T08:16:10.853Z,13.20
2023-03-21T08:18:39.218Z,13.20
2023-03-21T08:21:09.651Z,13.20
2023-03-21T08:23:38.088Z,13.20
2023-03-21T08:26:07.675Z,13.20
2023-03-21T08:28:39.393Z,13.20
2023-03-21T08:31:09.447Z,13.20
2023-03-21T08:33:38.194Z,13.20
2023-03-21T08:36:08.265Z,13.20
2023-03-21T08:38:37.013Z,13.20
2023-03-21T08:41:05.592Z,13.20
2023-03-21T08:43:34.124Z,13.20
2023-03-21T08:46:04.796Z,13.20
2023-03-21T08:48:33.277Z,13.20
2023-03-21T08:51:02.113Z,13.20
2023-03-21T08:53:30.618Z,13.20
2023-03-21T08:55:59.110Z,13.20
2023-03-21T08:58:27.565Z,13.20
2023-03-21T09:00:56.484Z,13.20
2023-03-21T09:03:27.412Z,13.20
2023-03-21T09:05:55.838Z,13.20
2023-03-21T09:08:24.436Z,13.20
2023-03-21T09:10:54.750Z,13.30
2023-03-21T09:13:23.671Z,13.20
2023-03-21T09:15:53.298Z,13.20
2023-03-21T09:18:41.679Z,13.30
2023-03-21T09:21:13.054Z,13.30
2023-03-21T09:23:41.750Z,13.30
2023-03-21T09:26:10.583Z,13.30
2023-03-21T09:28:39.112Z,13.30
2023-03-21T09:31:08.406Z,13.30
2023-03-21T09:33:36.780Z,13.30
2023-03-21T09:36:07.084Z,13.30
2023-03-21T09:38:37.611Z,13.30
2023-03-21T09:41:32.735Z,13.30
2023-03-21T09:44:12.732Z,13.00
2023-03-21T09:46:46.789Z,13.40
2023-03-21T09:49:20.947Z,13.40
2023-03-21T09:51:53.280Z,13.40
2023-03-21T09:54:27.338Z,13.40
2023-03-21T09:56:58.837Z,13.40
2023-03-21T09:59:33.820Z,13.40
2023-03-21T10:02:04.320Z,13.40
2023-03-21T10:04:34.042Z,13.40
2023-03-21T10:07:04.051Z,13.40
2023-03-21T10:09:34.858Z,13.40
2023-03-21T10:12:07.507Z,13.40
2023-03-21T10:14:39.389Z,13.40
2023-03-21T10:17:22.208Z,13.40
2023-03-21T10:19:52.270Z,13.40
2023-03-21T10:22:21.013Z,13.40
2023-03-21T10:24:50.721Z,13.40
2023-03-21T10:27:19.191Z,13.40
2023-03-21T10:29:48.003Z,13.40
2023-03-21T10:32:18.614Z,13.40
2023-03-21T10:34:49.930Z,13.40
2023-03-21T10:37:18.964Z,13.50
2023-03-21T10:39:49.967Z,13.50
2023-03-21T10:42:23.938Z,13.40
2023-03-21T10:44:54.504Z,13.50
2023-03-21T10:47:26.325Z,13.50
2023-03-21T10:50:11.470Z,13.50
2023-03-21T10:52:46.341Z,13.50
2023-03-21T10:55:21.730Z,13.50
2023-03-21T10:57:57.635Z,13.50
2023-03-21T11:00:29.722Z,13.50
2023-03-21T11:02:59.456Z,13.50
2023-03-21T11:05:35.605Z,13.60
2023-03-21T11:08:06.948Z,13.50
2023-03-21T11:10:38.147Z,13.60
2023-03-21T11:13:18.074Z,13.60
2023-03-21T11:15:54.670Z,13.60
2023-03-21T11:18:25.509Z,13.60
2023-03-21T11:20:58.479Z,13.60
2023-03-21T11:23:29.921Z,13.60
2023-03-21T11:26:00.512Z,13.60
2023-03-21T11:28:37.501Z,13.60
2023-03-21T11:31:07.155Z,13.70
2023-03-21T11:33:38.551Z,13.70
2023-03-21T11:36:09.552Z,13.70
2023-03-21T11:38:39.897Z,13.70
2023-03-21T11:41:08.587Z,13.70
2023-03-21T11:43:39.833Z,13.70
2023-03-21T11:46:10.181Z,13.70
2023-03-21T11:48:42.865Z,13.70
2023-03-21T11:51:24.115Z,13.70
2023-03-21T11:54:03.138Z,13.70
2023-03-21T11:56:34.368Z,13.70
2023-03-21T11:59:20.062Z,13.70
2023-03-21T12:02:06.992Z,13.70
2023-03-21T12:04:42.459Z,13.70
2023-03-21T12:07:37.285Z,13.70
2023-03-21T12:10:27.150Z,13.70
2023-03-21T12:13:05.699Z,13.70
2023-03-21T12:15:42.468Z,13.70
2023-03-21T12:18:24.628Z,13.70
2023-03-21T12:20:55.465Z,13.70
2023-03-21T12:23:47.342Z,13.70
2023-03-21T12:26:24.358Z,13.70
2023-03-21T12:29:05.419Z,13.80
2023-03-21T12:31:46.175Z,13.80
2023-03-21T12:34:27.877Z,13.80
2023-03-21T12:37:18.690Z,13.80
2023-03-21T12:39:49.743Z,13.80
2023-03-21T12:42:52.087Z,13.80
2023-03-21T12:45:26.114Z,13.80
2023-03-21T12:48:09.850Z,13.90
2023-03-21T12:50:40.472Z,13.90
2023-03-21T12:53:18.389Z,13.90
2023-03-21T12:55:47.428Z,13.90
2023-03-21T12:58:19.802Z,13.90
2023-03-21T13:00:50.875Z,13.90
2023-03-21T13:03:33.532Z,13.90
2023-03-21T13:06:10.388Z,13.90
2023-03-21T13:08:41.978Z,14.00
2023-03-21T13:11:15.019Z,14.00
2023-03-21T13:13:48.292Z,14.00
2023-03-21T13:16:21.142Z,14.00
2023-03-21T13:18:59.905Z,14.00
2023-03-21T13:21:42.563Z,14.00
2023-03-21T13:24:26.296Z,14.10
2023-03-21T13:27:04.330Z,14.10
2023-03-21T13:29:34.662Z,14.10
2023-03-21T13:32:11.543Z,14.10
2023-03-21T13:34:42.410Z,14.10
2023-03-21T13:37:17.890Z,14.20
2023-03-21T13:39:48.291Z,14.20
2023-03-21T13:42:24.588Z,14.20
2023-03-21T13:44:57.568Z,14.20
2023-03-21T13:47:38.805Z,14.30
2023-03-21T13:50:27.697Z,14.30
2023-03-21T13:53:23.309Z,14.30
2023-03-21T13:56:22.845Z,14.30
2023-03-21T13:59:11.096Z,14.30
2023-03-21T14:01:41.738Z,14.40
2023-03-21T14:04:16.522Z,14.30
2023-03-21T14:06:51.247Z,14.30
2023-03-21T14:09:26.436Z,14.40
2023-03-21T14:11:58.802Z,14.40
2023-03-21T14:14:38.633Z,14.40
2023-03-21T14:17:13.903Z,14.40
2023-03-21T14:19:42.421Z,14.50
2023-03-21T14:22:15.691Z,14.50
2023-03-21T14:24:49.567Z,14.20
2023-03-21T14:27:19.070Z,14.50
2023-03-21T14:29:48.867Z,14.50
2023-03-21T14:32:23.311Z,14.50
2023-03-21T14:34:52.110Z,14.60
2023-03-21T14:37:33.545Z,14.50
2023-03-21T14:40:08.667Z,14.50
2023-03-21T14:42:38.171Z,14.50
2023-03-21T14:45:20.631Z,14.60
2023-03-21T14:48:00.803Z,14.60
2023-03-21T14:50:37.633Z,14.60
2023-03-21T14:53:08.612Z,14.70
2023-03-21T14:55:43.928Z,14.70
2023-03-21T14:58:15.302Z,14.70
2023-03-21T15:00:44.407Z,14.70
2023-03-21T15:03:14.550Z,14.70
2023-03-21T15:05:43.702Z,14.70
2023-03-21T15:08:18.474Z,14.70
2023-03-21T15:11:06.127Z,14.80
2023-03-21T15:13:38.441Z,14.80
2023-03-21T15:16:07.887Z,14.80
2023-03-21T15:18:39.331Z,14.80
2023-03-21T15:21:13.924Z,14.80
2023-03-21T15:23:46.084Z,14.80
2023-03-21T15:26:17.608Z,14.80
2023-03-21T15:28:47.428Z,14.80
2023-03-21T15:31:19.339Z,14.70
2023-03-21T15:33:48.998Z,14.80
2023-03-21T15:36:22.249Z,14.80
2023-03-21T15:38:52.163Z,14.80
2023-03-21T15:41:31.545Z,14.80
2023-03-21T15:44:13.429Z,14.80
2023-03-21T15:46:44.748Z,14.80
2023-03-21T15:49:23.536Z,14.80
2023-03-21T15:51:55.063Z,14.80
2023-03-21T15:54:27.206Z,14.80
2023-03-21T15:56:57.210Z,14.80
2023-03-21T15:59:29.115Z,14.80
2023-03-21T16:01:57.774Z,14.80
2023-03-21T16:04:26.681Z,14.80
2023-03-21T16:07:00.165Z,14.80
2023-03-21T16:09:40.826Z,14.80
2023-03-21T16:12:13.281Z,14.80
2023-03-21T16:14:42.847Z,14.80
2023-03-21T16:17:37.118Z,14.80
2023-03-21T16:20:14.502Z,14.80
2023-03-21T16:22:43.198Z,14.80
2023-03-21T16:25:13.207Z,14.80
2023-03-21T16:27:41.746Z,14.80
2023-03-21T16:30:12.918Z,14.80
2023-03-21T16:32:41.894Z,14.80
2023-03-21T16:35:11.237Z,14.80
2023-03-21T16:37:39.902Z,14.80
2023-03-21T16:40:19.844Z,14.80
2023-03-21T16:42:48.194Z,14.80
2023-03-21T16:45:16.644Z,14.80
2023-03-21T16:47:47.359Z,14.80
2023-03-21T16:50:27.300Z,14.80
2023-03-21T16:52:56.150Z,14.80
2023-03-21T16:55:26.306Z,14.80
2023-03-21T16:57:55.825Z,14.80
2023-03-21T17:00:27.332Z,14.80
2023-03-21T17:02:56.686Z,14.80
2023-03-21T17:05:26.745Z,14.80
2023-03-21T17:07:55.645Z,14.80
2023-03-21T17:10:27.724Z,14.80
2023-03-21T17:12:56.654Z,14.80
2023-03-21T17:15:25.629Z,14.80
2023-03-21T17:17:55.685Z,14.80
2023-03-21T17:20:25.920Z,14.80
2023-03-21T17:22:54.436Z,14.80
2023-03-21T17:25:23.204Z,14.80
2023-03-21T17:27:53.130Z,14.80
2023-03-21T17:30:25.267Z,14.80
2023-03-21T17:32:54.615Z,14.80
2023-03-21T17:35:24.262Z,14.80
2023-03-21T17:37:52.913Z,14.80
2023-03-21T17:40:24.677Z,14.80
2023-03-21T17:42:54.814Z,14.80
2023-03-21T17:45:24.003Z,14.80
2023-03-21T17:47:52.663Z,14.80
2023-03-21T17:50:23.339Z,14.80
2023-03-21T17:52:52.239Z,14.80
2023-03-21T17:55:22.392Z,14.80
2023-03-21T17:57:51.440Z,14.70
2023-03-21T18:00:24.151Z,14.80
2023-03-21T18:02:54.374Z,14.70
2023-03-21T18:05:24.873Z,14.70
2023-03-21T18:08:12.713Z,14.70
2023-03-21T18:10:42.450Z,14.70
2023-03-21T18:13:11.505Z,14.70
2023-03-21T18:15:44.663Z,14.70
2023-03-21T18:18:14.534Z,14.70
2023-03-21T18:20:51.654Z,14.80
2023-03-21T18:23:21.439Z,14.70
2023-03-21T18:25:52.575Z,14.70
2023-03-21T18:28:22.334Z,14.70
2023-03-21T18:31:08.181Z,14.70
2023-03-21T18:33:40.409Z,14.70
2023-03-21T18:36:10.190Z,14.70
2023-03-21T18:38:38.975Z,14.70
2023-03-21T18:41:08.774Z,14.70
2023-03-21T18:46:28.752Z,14.70
2023-03-21T18:48:57.309Z,14.70
2023-03-21T18:51:25.807Z,14.70
2023-03-21T18:53:54.643Z,14.70
2023-03-21T18:57:13.065Z,14.70
2023-03-21T18:59:11.882Z,14.70
2023-03-21T19:01:41.760Z,14.70
2023-03-21T19:04:22.953Z,14.80
2023-03-21T19:06:57.788Z,14.70
2023-03-21T19:09:31.322Z,14.70
2023-03-21T19:12:00.803Z,14.80
2023-03-21T19:14:29.400Z,14.70
2023-03-21T19:17:55.787Z,14.70
2023-03-21T19:19:48.311Z,14.80
2023-03-21T19:22:16.971Z,14.80
2023-03-21T19:24:47.095Z,14.70
2023-03-21T19:27:15.764Z,14.80
2023-03-21T19:29:57.020Z,14.80
2023-03-21T19:32:32.812Z,14.80
2023-03-21T19:35:01.145Z,14.80
2023-03-21T19:37:29.867Z,14.80
2023-03-21T19:39:58.174Z,14.80
2023-03-21T19:42:28.572Z,14.70
2023-03-21T19:44:59.031Z,14.80
2023-03-21T19:47:27.502Z,14.70
2023-03-21T19:52:46.183Z,14.70
2023-03-21T19:55:15.501Z,14.70
2023-03-21T19:57:43.995Z,14.70
2023-03-21T20:00:13.666Z,14.70
2023-03-21T20:02:43.760Z,14.70
2023-03-21T20:05:15.606Z,14.70
2023-03-21T20:07:44.572Z,14.70
2023-03-21T20:10:13.054Z,14.70
2023-03-21T20:12:41.514Z,14.70
2023-03-21T20:15:17.757Z,14.70
2023-03-21T20:17:49.408Z,14.70
2023-03-21T20:20:19.964Z,14.70
2023-03-21T20:23:10.960Z,14.70
2023-03-21T20:25:45.568Z,14.70
2023-03-21T20:28:17.262Z,14.70
2023-03-21T20:30:56.912Z,14.70
2023-03-21T20:33:26.174Z,14.60
2023-03-21T20:38:51.441Z,14.60
2023-03-21T20:41:19.874Z,14.60
2023-03-21T20:46:37.793Z,14.60
2023-03-21T20:49:07.692Z,14.60
2023-03-21T20:54:26.308Z,14.60
2023-03-21T20:56:55.288Z,14.60
2023-03-21T20:59:27.543Z,14.60
2023-03-21T21:01:57.482Z,14.60
2023-03-21T21:04:46.714Z,14.60
2023-03-21T21:07:21.949Z,14.50
2023-03-21T21:09:51.473Z,14.60
2023-03-21T21:12:20.043Z,14.60
2023-03-21T21:14:49.203Z,14.50
2023-03-21T21:20:16.568Z,14.60
2023-03-21T21:22:58.535Z,14.50
2023-03-21T21:25:29.366Z,14.50
2023-03-21T21:27:57.811Z,14.50
2023-03-21T21:30:26.471Z,14.50
2023-03-21T21:32:54.918Z,14.50
2023-03-21T21:35:23.258Z,14.60
2023-03-21T21:37:53.693Z,14.80
2023-03-21T21:40:23.451Z,14.50
2023-03-21T21:42:52.277Z,14.50
2023-03-21T21:45:20.802Z,14.50
2023-03-21T21:47:49.285Z,14.50
2023-03-21T21:50:17.776Z,14.50
2023-03-21T21:52:52.665Z,14.50
2023-03-21T21:55:23.067Z,14.50
2023-03-21T21:57:52.938Z,14.50
2023-03-21T22:00:21.973Z,14.50
2023-03-21T22:02:50.675Z,14.50
2023-03-21T22:05:20.999Z,14.50
2023-03-21T22:07:51.999Z,14.50
2023-03-21T22:10:23.597Z,14.50
2023-03-21T22:12:52.727Z,14.50
2023-03-21T22:15:22.524Z,14.50
2023-03-21T22:17:51.398Z,14.50
2023-03-21T22:20:21.580Z,14.50
2023-03-21T22:22:50.823Z,14.50
2023-03-21T22:25:19.472Z,14.50
2023-03-21T22:27:49.209Z,14.50
2023-03-21T22:30:18.692Z,14.50
2023-03-21T22:33:02.532Z,14.50
2023-03-21T22:35:34.915Z,14.50
2023-03-21T22:38:03.282Z,14.50
2023-03-21T22:40:31.661Z,14.50
2023-03-21T22:43:01.407Z,14.50
2023-03-21T22:45:30.116Z,14.40
2023-03-21T22:47:59.917Z,14.50
2023-03-21T22:50:29.340Z,14.50
2023-03-21T22:52:57.640Z,14.40
2023-03-21T22:55:26.006Z,14.50
2023-03-21T22:57:54.428Z,14.40
2023-03-21T23:00:24.207Z,14.40
2023-03-21T23:02:52.666Z,14.40
2023-03-21T23:05:21.002Z,14.40
2023-03-21T23:07:49.356Z,14.40
2023-03-21T23:10:17.945Z,14.40
2023-03-21T23:12:46.752Z,14.40
2023-03-21T23:15:15.128Z,14.40
2023-03-21T23:17:45.003Z,14.40
2023-03-21T23:20:13.630Z,14.40
2023-03-21T23:22:41.921Z,14.40
2023-03-21T23:25:11.979Z,14.40
2023-03-21T23:27:40.413Z,14.40
2023-03-21T23:30:09.594Z,14.40
2023-03-21T23:32:38.037Z,14.40
2023-03-21T23:35:09.448Z,14.40
2023-03-21T23:37:37.949Z,14.40
2023-03-21T23:40:08.871Z,14.40
2023-03-21T23:42:37.275Z,14.40
2023-03-21T23:45:06.556Z,14.10
2023-03-21T23:47:35.073Z,14.40
2023-03-21T23:50:06.933Z,14.40
2023-03-21T23:52:36.985Z,14.40
2023-03-21T23:55:05.951Z,14.40
2023-03-21T23:57:34.616Z,14.40
